Dingess, West Virginia
Current Conditions -  °F | °C
As of 11:35 AM on Wednesday 26 Nov 2014 (Local Time) from KSJS Reporting Station
Overcast Overcast  
Wind Chill: 40°   Ceiling: 4200
Heat Index: 40°   Visibility: 10mi
Dew Point: 31°   Wind: 3mph
Humidity: 70%   Direction: 290°WNW
Pressure: 30.05"   Gusts: NA
Location:  37.87°N, 82.17°W
Report Text: KSJS 261635Z AUTO 29003KT 10SM SCT020 BKN042 OVC049 05/00 A3005 RMK AO2 T00461004
Loading
Personal Weather Stations






























Interactive Weather Map New forecast layout! Learn more

10-Day Weather Forecast

Advertisements
Track Severe Weather on mobile